EST,Max TemperatureF,Mean TemperatureF,Min TemperatureF,Max Dew PointF,MeanDew PointF,Min DewpointF,Max Humidity, Mean Humidity, Min Humidity, Max Sea Level PressureIn, Mean Sea Level PressureIn, Min Sea Level PressureIn, Max VisibilityMiles, Mean VisibilityMiles, Min VisibilityMiles, Max Wind SpeedMPH, Mean Wind SpeedMPH, Max Gust SpeedMPH,PrecipitationIn, CloudCover, Events, WindDirDegrees
2014-2-1,80,76,71,72,71,68,100,86,71,30.14,30.10,30.06,10,10,10,20,9,25,0.00,2,,139
2014-2-2,79,74,69,72,70,68,100,87,74,30.17,30.10,30.06,10,9,2,23,10,28,0.03,3,Rain,118
2014-2-3,80,76,72,73,71,70,93,86,79,30.11,30.07,30.03,10,10,10,20,11,23,T,4,Rain,133
2014-2-4,80,76,72,73,70,69,100,87,74,30.13,30.08,30.05,10,10,10,21,13,25,0.00,3,,125
2014-2-5,82,76,69,73,71,68,100,85,69,30.10,30.06,30.01,10,9,2,18,10,28,0.59,5,Rain,165
2014-2-6,79,75,70,72,70,68,100,86,71,30.11,30.07,30.03,10,10,9,16,5,20,0.00,2,,150
2014-2-7,78,73,67,70,69,67,100,88,76,30.13,30.09,30.06,10,8,0,12,5,15,0.00,3,Fog,49
2014-2-8,83,75,67,72,69,66,100,87,74,30.09,30.05,29.99,10,10,10,15,6,17,0.00,4,,83
2014-2-9,80,72,63,68,65,60,100,87,74,30.08,30.04,29.99,10,8,0,14,5,20,0.00,5,Fog,330
2014-2-10,80,71,62,67,65,61,100,85,69,30.09,30.04,30.00,10,10,10,14,7,17,0.00,4,,45
2014-2-11,83,76,68,69,67,65,90,76,62,30.07,30.03,29.99,10,10,10,16,7,20,0.00,3,,152
2014-2-12,83,73,63,72,67,61,97,81,65,30.04,29.93,29.84,10,9,4,24,8,30,0.57,5,Rain-Thunderstorm,173
2014-2-13,77,68,58,68,58,49,93,71,49,29.98,29.85,29.76,10,10,10,26,10,36,0.05,4,,274
2014-2-14,71,61,50,52,45,37,89,60,31,30.08,30.01,29.97,10,10,10,12,6,15,0.00,0,,266
2014-2-15,81,69,57,59,55,51,86,64,42,30.13,30.04,29.97,10,10,10,20,8,25,0.00,2,,282
2014-2-16,77,64,51,58,51,46,89,64,38,30.19,30.14,30.10,10,10,10,12,5,15,0.00,0,,355
2014-2-17,78,69,60,60,58,56,90,72,54,30.22,30.18,30.14,10,10,10,17,6,21,0.00,1,,58
2014-2-18,80,73,65,62,60,58,81,66,51,30.23,30.18,30.15,10,10,10,15,8,20,0.00,1,,101
2014-2-19,80,76,71,66,64,61,74,65,56,30.18,30.13,30.09,10,10,10,15,11,21,0.00,4,,111
2014-2-20,82,78,73,72,68,63,82,72,62,30.17,30.11,30.08,10,10,10,21,14,25,0.00,4,,117
2014-2-21,85,81,76,72,71,70,82,72,61,30.12,30.06,30.04,10,10,10,22,12,28,0.00,4,,149
2014-2-22,85,79,72,72,70,67,93,74,55,30.12,30.06,30.01,10,10,10,18,6,22,0.00,4,,152
2014-2-23,85,79,72,72,71,70,93,77,61,30.09,30.04,30.00,10,10,10,18,7,24,0.00,3,,162
2014-2-24,87,79,70,72,68,62,93,69,45,30.04,30.01,29.96,10,10,10,14,5,18,0.00,5,,269
2014-2-25,87,79,70,71,67,62,100,72,43,30.03,29.98,29.92,10,10,6,13,5,16,0.00,4,,308
2014-2-26,88,78,68,70,65,60,93,68,42,29.95,29.86,29.77,10,10,6,22,9,29,0.00,3,,247
2014-2-27,81,74,66,71,66,61,93,75,56,29.94,29.85,29.78,10,10,6,16,8,22,0.09,7,Rain,293
2014-2-28,76,70,63,66,61,52,93,73,53,30.08,29.98,29.89,10,9,7,14,6,16,0.02,5,Rain,323